Time;durP1;ratioP1;P1;durP2;ratioP2;P2;SDS_P1;SDS_P2;PMS_P1;PMS_P2;Temp;Humidity;BMP_temperature;BMP_pressure;BME280_temperature;BME280_humidity;BME280_pressure;Samples;Min_cycle;Max_cycle;Signal;HPM_P1;HPM_P2
2021/04/09 00:01:55;;;;;;;20.20;12.73;;;1.20;90.70;;;;;;5054644;28;20033;-81
2021/04/09 00:04:23;;;;;;;20.48;13.20;;;1.20;90.80;;;;;;5054743;28;20028;-81
2021/04/09 00:06:50;;;;;;;20.50;12.85;;;1.20;90.90;;;;;;5055081;28;20018;-81
2021/04/09 00:09:16;;;;;;;21.17;12.98;;;1.10;91.10;;;;;;5054452;28;20055;-81
2021/04/09 00:11:42;;;;;;;19.90;12.48;;;1.10;91.20;;;;;;5017764;28;20053;-81
2021/04/09 00:14:11;;;;;;;18.92;11.82;;;1.00;91.20;;;;;;5051438;28;20029;-81
2021/04/09 00:16:38;;;;;;;19.83;12.38;;;1.00;91.10;;;;;;5036252;28;20151;-81
2021/04/09 00:19:10;;;;;;;23.33;13.90;;;1.00;91.10;;;;;;5051550;28;20029;-81
2021/04/09 00:21:37;;;;;;;24.90;14.20;;;1.00;91.30;;;;;;5051019;28;20091;-81
2021/04/09 00:24:03;;;;;;;22.95;14.02;;;1.00;91.10;;;;;;5054095;28;20390;-81
2021/04/09 00:26:29;;;;;;;24.27;14.07;;;1.00;91.20;;;;;;5055302;28;20029;-81
2021/04/09 00:28:55;;;;;;;21.77;13.43;;;1.00;91.10;;;;;;5053777;28;20032;-81
2021/04/09 00:31:21;;;;;;;20.63;12.13;;;1.00;91.30;;;;;;5037837;28;20379;-81
2021/04/09 00:33:50;;;;;;;23.60;13.25;;;0.90;91.40;;;;;;5054037;28;20025;-81
2021/04/09 00:36:17;;;;;;;20.90;12.98;;;0.90;91.30;;;;;;5055114;28;20090;-81
2021/04/09 00:38:43;;;;;;;21.52;12.25;;;0.90;91.40;;;;;;5053971;28;20082;-81
2021/04/09 00:41:10;;;;;;;21.17;12.38;;;0.90;91.30;;;;;;5054877;28;20491;-81
2021/04/09 00:43:37;;;;;;;20.42;12.90;;;0.90;91.30;;;;;;5053284;28;20029;-81
2021/04/09 00:46:02;;;;;;;18.10;11.80;;;0.80;91.40;;;;;;5053768;28;20395;-81
2021/04/09 00:48:28;;;;;;;17.65;11.57;;;0.80;91.40;;;;;;5054781;28;20025;-81
2021/04/09 00:50:53;;;;;;;19.48;12.07;;;0.90;91.40;;;;;;5054303;28;20467;-81
2021/04/09 00:53:20;;;;;;;20.48;11.88;;;0.80;91.40;;;;;;5053585;28;20383;-81
2021/04/09 00:55:47;;;;;;;23.60;13.20;;;0.80;91.30;;;;;;5054849;28;20108;-81
2021/04/09 00:58:14;;;;;;;27.50;14.70;;;0.80;91.50;;;;;;5053190;28;20040;-81
2021/04/09 01:00:42;;;;;;;34.17;17.80;;;0.80;91.40;;;;;;5053477;28;20021;-81
2021/04/09 01:03:08;;;;;;;40.17;18.30;;;0.80;91.40;;;;;;5053969;28;20056;-82
2021/04/09 01:05:35;;;;;;;43.15;20.27;;;0.80;91.50;;;;;;5036966;28;20379;-81
2021/04/09 01:08:02;;;;;;;56.72;24.77;;;0.70;91.50;;;;;;5055031;28;20025;-82
2021/04/09 01:10:28;;;;;;;54.72;25.13;;;0.70;91.70;;;;;;5053239;28;20021;-81
2021/04/09 01:12:54;;;;;;;67.63;26.33;;;0.60;91.60;;;;;;5053135;28;20040;-81
2021/04/09 01:15:20;;;;;;;61.53;26.48;;;0.60;91.70;;;;;;5052392;28;20025;-81
2021/04/09 01:18:02;;;;;;;51.50;23.67;;;0.50;91.70;;;;;;5053001;28;20021;-81
2021/04/09 01:20:41;;;;;;;58.35;25.08;;;0.50;91.70;;;;;;5053295;28;20051;-81
2021/04/09 01:23:31;;;;;;;43.03;19.85;;;0.50;91.80;;;;;;5052928;28;20025;-81
2021/04/09 01:26:14;;;;;;;33.88;15.73;;;0.50;91.70;;;;;;5053247;28;20038;-81
2021/04/09 01:29:10;;;;;;;23.23;13.60;;;0.60;91.60;;;;;;5054365;28;20100;-81
2021/04/09 01:31:52;;;;;;;26.65;14.50;;;0.70;91.60;;;;;;5052519;28;20053;-81
2021/04/09 01:34:18;;;;;;;24.83;14.18;;;0.70;91.40;;;;;;5036978;28;20025;-81
2021/04/09 01:36:53;;;;;;;21.83;12.48;;;0.70;91.30;;;;;;5035986;28;20033;-82
2021/04/09 01:39:28;;;;;;;22.98;13.07;;;0.70;91.30;;;;;;5054681;28;20072;-81
2021/04/09 01:41:57;;;;;;;22.65;13.23;;;0.70;91.40;;;;;;5032890;28;20136;-81
2021/04/09 01:44:27;;;;;;;18.45;11.50;;;0.70;91.40;;;;;;5048454;28;20025;-79
2021/04/09 01:46:54;;;;;;;19.30;11.15;;;0.70;91.40;;;;;;5052711;28;20056;-79
2021/04/09 01:49:23;;;;;;;18.40;10.95;;;0.70;91.40;;;;;;5053340;28;20395;-79
2021/04/09 01:51:50;;;;;;;16.52;10.90;;;0.70;91.40;;;;;;5052599;28;20055;-81
2021/04/09 01:54:17;;;;;;;20.77;11.18;;;0.70;91.40;;;;;;5052842;28;20119;-81
2021/04/09 01:56:47;;;;;;;24.33;12.38;;;0.70;91.50;;;;;;5054664;28;20028;-81
2021/04/09 01:59:14;;;;;;;23.45;12.40;;;0.60;91.70;;;;;;5051830;28;20030;-82
2021/04/09 02:01:44;;;;;;;22.90;14.25;;;0.70;91.60;;;;;;5053403;28;20367;-82
2021/04/09 02:04:10;;;;;;;25.00;14.43;;;0.60;91.70;;;;;;5031947;28;20050;-81
2021/04/09 02:06:42;;;;;;;22.38;13.63;;;0.60;91.70;;;;;;5032963;28;20450;-80
2021/04/09 02:09:11;;;;;;;26.92;16.42;;;0.50;91.70;;;;;;5053041;28;20032;-80
2021/04/09 02:11:37;;;;;;;33.60;16.10;;;0.50;91.80;;;;;;5036198;28;20166;-80
2021/04/09 02:14:05;;;;;;;26.67;15.93;;;0.50;91.80;;;;;;5054418;28;20371;-81
2021/04/09 02:16:33;;;;;;;31.30;15.75;;;0.50;91.80;;;;;;5052347;28;20463;-81
2021/04/09 02:19:06;;;;;;;31.88;16.63;;;0.50;91.80;;;;;;5053977;28;20043;-81
2021/04/09 02:21:34;;;;;;;25.17;14.70;;;0.40;91.90;;;;;;5053749;28;20028;-81
2021/04/09 02:24:00;;;;;;;26.85;15.70;;;0.40;91.90;;;;;;5052603;28;20037;-81
2021/04/09 02:26:27;;;;;;;24.27;14.63;;;0.40;92.00;;;;;;5052617;28;20107;-81
2021/04/09 02:28:54;;;;;;;30.73;17.00;;;0.30;92.00;;;;;;5052864;28;20024;-81
2021/04/09 02:31:23;;;;;;;28.52;17.08;;;0.30;92.10;;;;;;5052037;28;20027;-82
2021/04/09 02:33:49;;;;;;;32.30;18.02;;;0.20;92.00;;;;;;5052506;28;20032;-82
2021/04/09 02:36:18;;;;;;;29.58;17.67;;;0.20;92.10;;;;;;5053196;28;20406;-82
2021/04/09 02:38:49;;;;;;;27.02;17.15;;;0.10;92.20;;;;;;5051945;28;20035;-82
2021/04/09 02:41:15;;;;;;;;;;;0.00;92.30;;;;;;5053101;28;20095;-82
2021/04/09 02:43:43;;;;;;;29.23;16.48;;;-0.10;92.70;;;;;;5052537;28;19909;-83
2021/04/09 02:46:13;;;;;;;33.10;18.67;;;-0.10;92.40;;;;;;5053052;28;20025;-82
2021/04/09 02:48:50;;;;;;;30.15;18.10;;;-0.20;92.50;;;;;;5036996;28;20364;-82
2021/04/09 02:51:21;;;;;;;30.80;17.55;;;-0.20;92.60;;;;;;5053456;28;20060;-82
2021/04/09 02:53:48;;;;;;;27.77;17.08;;;-0.20;92.60;;;;;;5035904;28;20127;-82
2021/04/09 02:56:14;;;;;;;26.60;14.75;;;-0.20;92.70;;;;;;5052427;28;20028;-82
2021/04/09 02:58:43;;;;;;;31.90;14.23;;;-0.20;92.70;;;;;;5052557;28;20041;-82
2021/04/09 03:01:09;;;;;;;28.05;14.80;;;-0.10;92.50;;;;;;5018635;28;20035;-82
2021/04/09 03:03:36;;;;;;;27.83;15.57;;;-0.10;92.30;;;;;;5034815;28;20507;-80
2021/04/09 03:06:05;;;;;;;23.90;14.68;;;0.00;92.20;;;;;;5051532;28;20471;-81
2021/04/09 03:08:33;;;;;;;28.30;16.85;;;0.00;92.30;;;;;;5051362;28;20111;-81
2021/04/09 03:11:03;;;;;;;33.58;20.75;;;0.00;92.40;;;;;;5051030;28;20021;-81
2021/04/09 03:13:30;;;;;;;30.98;19.85;;;0.00;92.40;;;;;;5051340;28;20052;-82
2021/04/09 03:15:58;;;;;;;37.70;22.08;;;0.00;92.30;;;;;;5051828;28;20033;-81
2021/04/09 03:18:27;;;;;;;37.88;21.80;;;0.00;92.40;;;;;;5053106;28;20254;-81
2021/04/09 03:20:54;;;;;;;35.55;19.52;;;0.00;92.40;;;;;;5031651;28;20034;-80
2021/04/09 03:23:21;;;;;;;31.83;20.00;;;-0.10;92.50;;;;;;5039086;28;20025;-80
2021/04/09 03:25:46;;;;;;;28.42;17.27;;;-0.10;92.50;;;;;;5052888;28;20482;-80
2021/04/09 03:28:12;;;;;;;27.10;16.95;;;-0.20;92.60;;;;;;5031068;28;20033;-80
2021/04/09 03:30:38;;;;;;;27.30;16.38;;;-0.20;92.60;;;;;;5050604;28;20047;-79
2021/04/09 03:33:05;;;;;;;33.05;18.92;;;-0.20;92.70;;;;;;5051247;28;20043;-80
2021/04/09 03:35:31;;;;;;;33.08;16.98;;;-0.20;92.60;;;;;;5050198;28;20025;-81
2021/04/09 03:37:57;;;;;;;33.38;18.23;;;-0.20;92.80;;;;;;5050658;28;20493;-80
2021/04/09 03:40:23;;;;;;;30.80;17.17;;;-0.20;92.60;;;;;;5051352;28;20454;-80
2021/04/09 03:42:49;;;;;;;30.90;17.90;;;-0.10;92.60;;;;;;5030788;28;20034;-80
2021/04/09 03:45:16;;;;;;;27.85;16.40;;;-0.10;92.70;;;;;;5045604;28;20033;-80
2021/04/09 03:47:41;;;;;;;26.40;14.85;;;0.00;92.80;;;;;;5051222;28;20031;-80
2021/04/09 03:50:08;;;;;;;29.20;16.10;;;0.00;92.50;;;;;;5034155;28;20120;-80
2021/04/09 03:52:37;;;;;;;27.30;16.35;;;0.00;92.70;;;;;;5031230;28;20033;-80
2021/04/09 03:55:05;;;;;;;27.80;16.20;;;0.00;92.60;;;;;;5032438;28;20030;-81
2021/04/09 03:57:32;;;;;;;27.80;16.58;;;0.00;92.60;;;;;;5038536;28;20029;-81
2021/04/09 03:59:57;;;;;;;22.35;13.63;;;0.00;92.70;;;;;;5050637;28;20060;-81
2021/04/09 04:02:24;;;;;;;25.58;14.23;;;0.10;92.70;;;;;;5034608;28;20506;-81
2021/04/09 04:04:50;;;;;;;21.83;13.40;;;0.20;92.70;;;;;;5052108;28;20033;-81
2021/04/09 04:07:16;;;;;;;23.98;14.68;;;0.20;92.60;;;;;;5049937;28;20024;-81
2021/04/09 04:09:41;;;;;;;22.98;13.98;;;0.20;92.80;;;;;;5050396;28;20031;-81
2021/04/09 04:12:08;;;;;;;21.98;13.27;;;0.20;92.70;;;;;;5051382;28;20021;-82
2021/04/09 04:14:33;;;;;;;26.33;15.15;;;0.30;92.70;;;;;;5051020;28;20029;-81
2021/04/09 04:16:59;;;;;;;24.42;14.90;;;0.30;92.70;;;;;;5050794;28;20032;-82
2021/04/09 04:19:27;;;;;;;25.00;14.90;;;0.40;92.80;;;;;;5050351;28;20110;-82
2021/04/09 04:21:53;;;;;;;24.65;13.50;;;0.40;92.80;;;;;;5050203;28;20036;-81
2021/04/09 04:24:19;;;;;;;29.63;15.25;;;0.50;92.60;;;;;;5052625;28;20033;-81
2021/04/09 04:26:46;;;;;;;26.98;14.38;;;0.60;92.80;;;;;;5051550;28;20136;-81
2021/04/09 04:29:12;;;;;;;27.40;15.60;;;0.70;92.80;;;;;;5055645;28;20423;-81
2021/04/09 04:31:37;;;;;;;27.27;15.77;;;0.70;92.70;;;;;;5054676;28;20025;-80
2021/04/09 04:34:03;;;;;;;27.67;14.25;;;0.90;92.50;;;;;;5054123;28;20063;-79
2021/04/09 04:36:29;;;;;;;27.23;14.95;;;1.00;92.40;;;;;;5055842;28;20479;-81
2021/04/09 04:38:54;;;;;;;29.40;17.05;;;1.10;92.30;;;;;;5056593;28;20064;-94
2021/04/09 04:41:20;;;;;;;32.63;16.90;;;1.20;92.20;;;;;;5057353;28;20090;-96
2021/04/09 04:43:50;;;;;;;23.02;14.40;;;1.30;92.10;;;;;;5073641;28;20060;-95
2021/04/09 04:46:15;;;;;;;26.52;15.48;;;1.40;92.00;;;;;;5047229;28;20124;-82
2021/04/09 04:48:41;;;;;;;28.55;16.73;;;1.50;91.90;;;;;;5056046;28;20167;-85
2021/04/09 04:51:07;;;;;;;32.65;17.73;;;1.60;91.70;;;;;;5055185;28;20044;-82
2021/04/09 04:53:33;;;;;;;53.97;27.33;;;1.70;91.70;;;;;;5054251;28;20025;-81
2021/04/09 04:56:01;;;;;;;49.00;26.05;;;1.80;91.70;;;;;;5055448;28;20033;-78
2021/04/09 04:58:27;;;;;;;32.25;18.45;;;1.90;91.60;;;;;;5054265;28;20475;-78
2021/04/09 05:00:53;;;;;;;28.08;15.82;;;2.00;91.60;;;;;;5038649;28;20071;-78
2021/04/09 05:03:19;;;;;;;25.35;14.38;;;2.10;91.50;;;;;;5055017;28;20475;-78
2021/04/09 05:05:46;;;;;;;23.83;14.98;;;2.10;91.40;;;;;;5054119;28;20013;-82
2021/04/09 05:08:12;;;;;;;34.90;19.00;;;2.20;91.40;;;;;;5054419;28;20031;-70
2021/04/09 05:10:37;;;;;;;39.65;21.88;;;2.30;91.30;;;;;;5053163;28;20450;-68
2021/04/09 05:13:03;;;;;;;36.83;19.27;;;2.40;91.20;;;;;;5054803;28;20029;-69
2021/04/09 05:15:28;;;;;;;30.55;15.90;;;2.50;91.10;;;;;;5054955;28;20031;-69
2021/04/09 05:17:54;;;;;;;29.10;16.05;;;2.60;91.10;;;;;;5054353;28;20040;-69
2021/04/09 05:20:20;;;;;;;24.00;14.10;;;2.70;90.90;;;;;;5053988;28;20025;-68
2021/04/09 05:22:46;;;;;;;27.73;16.05;;;2.80;90.80;;;;;;5055287;28;20025;-69
2021/04/09 05:25:13;;;;;;;25.40;15.80;;;2.90;90.80;;;;;;5053884;28;20039;-85
2021/04/09 05:27:41;;;;;;;29.92;15.63;;;3.00;90.70;;;;;;5054062;28;20028;-85
2021/04/09 05:30:07;;;;;;;28.33;17.60;;;3.00;90.60;;;;;;5054032;28;20087;-88
2021/04/09 05:32:33;;;;;;;31.10;17.00;;;3.10;90.70;;;;;;5053849;28;20505;-90
2021/04/09 05:34:59;;;;;;;33.00;19.15;;;3.20;90.70;;;;;;5072165;28;20036;-82
2021/04/09 05:37:25;;;;;;;30.13;17.58;;;3.30;90.60;;;;;;5072039;28;20021;-81
2021/04/09 05:39:51;;;;;;;26.60;16.38;;;3.40;90.50;;;;;;5071884;28;20031;-82
2021/04/09 05:42:18;;;;;;;29.35;17.15;;;3.50;90.50;;;;;;5055234;28;20039;-82
2021/04/09 05:44:43;;;;;;;33.25;18.15;;;3.50;90.70;;;;;;5072035;28;20393;-82
2021/04/09 05:47:10;;;;;;;38.10;17.88;;;3.60;90.60;;;;;;5072679;28;20028;-82
2021/04/09 05:49:36;;;;;;;24.83;15.95;;;3.70;90.40;;;;;;5071924;28;20021;-82
2021/04/09 05:52:05;;;;;;;29.50;16.52;;;3.80;90.30;;;;;;5072757;28;20024;-82
2021/04/09 05:54:33;;;;;;;27.42;15.90;;;3.90;90.40;;;;;;5055571;28;20031;-82
2021/04/09 05:56:59;;;;;;;25.70;14.65;;;4.00;90.30;;;;;;5071481;28;20032;-82
2021/04/09 05:59:25;;;;;;;26.83;15.52;;;4.10;89.50;;;;;;5071480;28;20482;-82
2021/04/09 06:01:52;;;;;;;22.88;13.23;;;4.20;90.10;;;;;;5054938;28;20059;-81
2021/04/09 06:04:17;;;;;;;26.08;16.13;;;4.30;90.00;;;;;;5071196;28;20044;-82
2021/04/09 06:06:43;;;;;;;21.45;15.35;;;4.50;89.40;;;;;;5071192;28;20078;-82
2021/04/09 06:09:09;;;;;;;24.42;15.50;;;4.60;89.00;;;;;;5071267;28;20028;-82
2021/04/09 06:11:35;;;;;;;19.70;14.00;;;4.70;88.50;;;;;;5071434;28;20112;-82
2021/04/09 06:14:02;;;;;;;27.35;21.65;;;4.80;88.10;;;;;;5054738;28;20510;-81
2021/04/09 06:16:28;;;;;;;29.23;19.08;;;4.90;87.30;;;;;;5054800;28;20037;-82
2021/04/09 06:18:54;;;;;;;20.42;13.68;;;5.10;87.50;;;;;;5071592;28;20449;-82
2021/04/09 06:21:20;;;;;;;20.42;12.13;;;5.20;86.90;;;;;;5054818;28;20029;-82
2021/04/09 06:23:46;;;;;;;18.58;12.20;;;5.20;86.80;;;;;;5072179;28;20024;-82
2021/04/09 06:26:13;;;;;;;17.90;12.63;;;5.30;86.50;;;;;;5073118;28;20052;-81
2021/04/09 06:28:38;;;;;;;21.95;13.65;;;5.40;85.60;;;;;;5072973;28;20021;-82
2021/04/09 06:31:05;;;;;;;19.27;13.07;;;5.40;84.80;;;;;;5072666;28;20020;-82
2021/04/09 06:33:32;;;;;;;22.75;14.32;;;5.40;84.80;;;;;;5073982;28;20028;-81
2021/04/09 06:35:59;;;;;;;21.23;14.05;;;5.50;83.60;;;;;;5072888;28;20032;-82
2021/04/09 06:38:25;;;;;;;20.15;14.13;;;5.50;84.60;;;;;;5072949;28;20367;-81
2021/04/09 06:40:50;;;;;;;21.55;14.05;;;5.50;84.80;;;;;;5073247;28;20031;-81
2021/04/09 06:43:16;;;;;;;18.35;12.90;;;5.50;85.00;;;;;;5072970;28;20024;-81
2021/04/09 06:45:42;;;;;;;20.58;13.77;;;5.60;85.00;;;;;;5073771;28;20012;-81
2021/04/09 06:48:10;;;;;;;20.10;14.18;;;5.70;84.50;;;;;;5072635;28;20364;-81
2021/04/09 06:50:36;;;;;;;22.33;13.95;;;5.80;84.50;;;;;;5072056;28;20090;-81
2021/04/09 06:53:01;;;;;;;21.67;14.27;;;5.90;84.80;;;;;;5072706;28;20017;-81
2021/04/09 06:55:28;;;;;;;24.85;15.63;;;5.90;84.20;;;;;;5072648;28;20021;-81
2021/04/09 06:57:59;;;;;;;17.73;13.02;;;5.90;84.20;;;;;;5055668;28;20559;-81
2021/04/09 07:00:31;;;;;;;18.02;12.88;;;5.90;83.90;;;;;;5056152;28;20029;-81
2021/04/09 07:02:57;;;;;;;17.67;12.55;;;5.90;83.50;;;;;;5072443;28;20032;-81
2021/04/09 07:05:23;;;;;;;20.33;12.80;;;5.90;84.10;;;;;;5072230;28;20115;-81
2021/04/09 07:07:49;;;;;;;21.80;13.43;;;6.00;83.40;;;;;;5072482;28;20029;-81
2021/04/09 07:10:15;;;;;;;28.83;18.25;;;5.90;83.60;;;;;;5072433;28;20398;-82
2021/04/09 07:12:41;;;;;;;20.80;14.45;;;5.90;83.50;;;;;;5072298;28;20027;-82
2021/04/09 07:15:09;;;;;;;19.25;13.82;;;5.90;83.00;;;;;;5072322;28;20021;-82
2021/04/09 07:17:43;;;;;;;20.67;13.68;;;5.90;83.90;;;;;;5071956;28;20029;-81
2021/04/09 07:20:15;;;;;;;22.70;15.45;;;5.90;84.30;;;;;;5073740;28;20033;-82
2021/04/09 07:22:45;;;;;;;24.98;16.20;;;6.00;85.00;;;;;;5072243;28;20177;-82
2021/04/09 07:25:17;;;;;;;20.85;14.00;;;6.00;85.60;;;;;;5070479;28;20123;-82
2021/04/09 07:27:46;;;;;;;18.92;13.63;;;6.10;85.60;;;;;;5070669;28;20506;-81
2021/04/09 07:30:27;;;;;;;20.42;14.00;;;6.10;84.90;;;;;;5070273;28;20021;-81
2021/04/09 07:33:04;;;;;;;20.98;15.15;;;6.20;84.00;;;;;;5071723;28;20017;-80
2021/04/09 07:35:42;;;;;;;22.98;14.68;;;6.20;83.90;;;;;;5070243;28;20033;-81
2021/04/09 07:38:08;;;;;;;22.45;15.38;;;6.20;84.00;;;;;;5070477;28;20040;-79
2021/04/09 07:40:35;;;;;;;18.88;13.60;;;6.10;84.50;;;;;;5071350;28;20394;-81
2021/04/09 07:43:01;;;;;;;20.27;14.95;;;6.20;84.20;;;;;;5070074;28;20112;-81
2021/04/09 07:45:30;;;;;;;21.42;14.95;;;6.20;84.70;;;;;;5053504;28;20035;-81
2021/04/09 07:48:04;;;;;;;19.55;14.07;;;6.30;84.70;;;;;;5070232;28;20493;-81
2021/04/09 07:50:39;;;;;;;17.38;13.10;;;6.30;84.60;;;;;;5070636;28;20177;-81
2021/04/09 07:53:09;;;;;;;21.95;14.65;;;6.40;84.70;;;;;;5070057;28;20103;-81
2021/04/09 07:55:36;;;;;;;19.20;13.73;;;6.40;84.40;;;;;;5054223;28;20056;-81
2021/04/09 07:58:17;;;;;;;18.52;13.55;;;6.50;84.40;;;;;;5070138;28;20094;-80
2021/04/09 08:00:44;;;;;;;21.08;14.00;;;6.60;83.80;;;;;;5070383;28;20027;-81
2021/04/09 08:03:10;;;;;;;19.90;12.57;;;6.60;83.60;;;;;;5072352;28;20032;-80
2021/04/09 08:05:36;;;;;;;18.63;13.25;;;6.70;83.80;;;;;;5073520;28;20043;-80
2021/04/09 08:08:02;;;;;;;20.15;14.40;;;6.70;83.40;;;;;;5073668;28;20068;-80
2021/04/09 08:10:33;;;;;;;24.38;15.18;;;6.80;82.70;;;;;;5073529;28;20016;-81
2021/04/09 08:13:01;;;;;;;19.48;14.18;;;6.80;82.20;;;;;;5073923;28;20033;-80
2021/04/09 08:15:32;;;;;;;15.90;12.05;;;6.90;83.10;;;;;;5073657;28;20021;-81
2021/04/09 08:18:04;;;;;;;17.80;13.43;;;6.90;83.20;;;;;;5073668;28;20047;-81
2021/04/09 08:20:37;;;;;;;20.42;13.43;;;7.00;82.60;;;;;;5073636;28;20020;-81
2021/04/09 08:23:09;;;;;;;18.23;13.30;;;7.10;83.00;;;;;;5073980;28;20394;-82
2021/04/09 08:25:36;;;;;;;16.35;12.30;;;7.20;82.90;;;;;;5058865;28;20029;-82
2021/04/09 08:28:08;;;;;;;16.80;13.98;;;7.30;82.60;;;;;;5076667;28;20107;-82
2021/04/09 08:30:35;;;;;;;24.08;13.77;;;7.30;81.90;;;;;;5076584;28;20049;-82
2021/04/09 08:33:02;;;;;;;18.52;13.20;;;7.40;82.40;;;;;;5075319;28;20021;-81
2021/04/09 08:35:28;;;;;;;23.13;14.63;;;7.40;81.60;;;;;;5058688;28;20032;-81
2021/04/09 08:37:55;;;;;;;19.15;14.48;;;7.50;80.80;;;;;;5076321;28;20021;-81
2021/04/09 08:40:22;;;;;;;19.27;13.60;;;7.50;80.80;;;;;;5075153;28;20379;-81
2021/04/09 08:42:48;;;;;;;15.38;11.60;;;7.60;80.90;;;;;;5075146;28;20481;-82
2021/04/09 08:45:15;;;;;;;21.73;14.60;;;7.60;81.20;;;;;;5074855;28;20477;-82
2021/04/09 08:47:43;;;;;;;20.35;14.75;;;7.70;80.50;;;;;;5058282;28;20040;-82
2021/04/09 08:50:12;;;;;;;21.80;14.65;;;7.70;79.50;;;;;;5076424;28;20040;-82
2021/04/09 08:52:41;;;;;;;19.08;14.18;;;7.60;79.10;;;;;;5074837;28;20035;-81
2021/04/09 08:55:08;;;;;;;21.20;14.57;;;7.50;78.50;;;;;;5074988;28;20108;-81
2021/04/09 08:57:36;;;;;;;19.90;14.13;;;7.50;78.00;;;;;;5075835;28;20457;-81
2021/04/09 09:00:11;;;;;;;21.65;13.85;;;7.50;78.30;;;;;;5074743;28;20467;-82
2021/04/09 09:02:43;;;;;;;14.90;11.43;;;7.50;77.30;;;;;;5074498;28;20131;-82
2021/04/09 09:05:12;;;;;;;18.10;13.45;;;7.60;78.70;;;;;;5074472;28;20379;-81
2021/04/09 09:07:47;;;;;;;19.08;13.30;;;7.70;78.70;;;;;;5075763;28;20046;-82
2021/04/09 09:10:31;;;;;;;17.45;13.63;;;7.80;77.60;;;;;;5074760;28;20021;-81
2021/04/09 09:13:05;;;;;;;17.05;13.02;;;7.90;77.10;;;;;;5074306;28;20078;-82
2021/04/09 09:15:44;;;;;;;18.40;13.18;;;7.90;74.90;;;;;;5074543;28;20020;-82
2021/04/09 09:18:36;;;;;;;18.23;13.27;;;8.00;75.40;;;;;;5075262;28;20017;-82
2021/04/09 09:21:13;;;;;;;19.08;13.18;;;7.90;76.20;;;;;;5073977;28;20438;-82
2021/04/09 09:23:56;;;;;;;18.52;12.48;;;8.00;76.30;;;;;;5073063;28;20021;-82
2021/04/09 09:26:42;;;;;;;16.95;12.23;;;8.00;75.30;;;;;;5072572;28;20021;-81
2021/04/09 09:29:13;;;;;;;15.15;11.98;;;8.10;74.20;;;;;;5055452;28;20035;-82
2021/04/09 09:31:51;;;;;;;17.77;12.43;;;8.20;74.40;;;;;;5072385;28;20385;-82
2021/04/09 09:34:17;;;;;;;17.35;12.55;;;8.20;72.60;;;;;;5072074;28;20028;-80
2021/04/09 09:37:11;;;;;;;16.65;11.35;;;8.30;74.10;;;;;;5072179;28;20068;-82
2021/04/09 09:40:01;;;;;;;15.70;11.65;;;8.30;73.50;;;;;;5071948;28;20024;-81
2021/04/09 09:42:27;;;;;;;16.98;14.10;;;8.40;72.70;;;;;;5071964;28;20486;-81
2021/04/09 09:45:00;;;;;;;16.25;13.05;;;8.40;72.40;;;;;;5071828;28;20032;-81
2021/04/09 09:47:28;;;;;;;20.65;11.55;;;8.40;72.10;;;;;;5071727;28;20421;-81
2021/04/09 09:50:03;;;;;;;15.30;11.50;;;8.60;72.60;;;;;;5071775;28;20031;-81
2021/04/09 09:52:51;;;;;;;14.95;11.38;;;8.70;72.40;;;;;;5071910;28;20132;-81
2021/04/09 09:55:36;;;;;;;25.40;19.92;;;8.80;72.80;;;;;;5071837;28;20028;-80
2021/04/09 09:58:10;;;;;;;16.42;12.57;;;8.90;71.90;;;;;;5071973;28;20379;-81
2021/04/09 10:00:42;;;;;;;26.33;19.27;;;8.90;68.90;;;;;;5071463;28;20024;-81
2021/04/09 10:03:28;;;;;;;15.60;11.32;;;8.90;70.60;;;;;;5071309;28;20039;-80
2021/04/09 10:06:03;;;;;;;13.88;10.85;;;8.90;69.50;;;;;;5072787;28;20028;-80
2021/04/09 10:08:30;;;;;;;15.80;12.98;;;8.80;70.70;;;;;;5071457;28;20045;-81
2021/04/09 10:10:59;;;;;;;16.90;12.65;;;8.90;71.30;;;;;;5071361;28;20418;-81
2021/04/09 10:13:33;;;;;;;15.85;11.63;;;9.00;72.20;;;;;;5072567;28;20029;-80
2021/04/09 10:16:37;;;;;;;15.63;11.60;;;9.20;70.90;;;;;;5071483;28;20137;-81
2021/04/09 10:19:07;;;;;;;15.13;11.57;;;9.40;68.80;;;;;;5071283;28;20433;-81
2021/04/09 10:21:42;;;;;;;15.77;11.77;;;9.50;67.90;;;;;;5071120;28;20465;-82
2021/04/09 10:24:21;;;;;;;18.17;13.25;;;9.60;67.40;;;;;;5055929;28;20025;-86
2021/04/09 10:26:56;;;;;;;16.73;12.37;;;9.60;67.20;;;;;;5072897;28;20466;-81
2021/04/09 10:29:35;;;;;;;14.75;11.60;;;9.70;68.40;;;;;;5072896;28;20250;-81
2021/04/09 10:32:05;;;;;;;15.90;11.90;;;9.70;66.20;;;;;;5073165;28;20374;-81
2021/04/09 10:34:35;;;;;;;14.45;10.80;;;9.60;66.80;;;;;;5073083;28;20416;-81
2021/04/09 10:37:03;;;;;;;16.92;12.27;;;9.60;67.70;;;;;;5073377;28;20115;-81
2021/04/09 10:39:31;;;;;;;13.27;10.88;;;9.40;67.30;;;;;;5056557;28;20036;-82
2021/04/09 10:42:00;;;;;;;12.02;9.82;;;9.40;68.60;;;;;;5055744;28;20040;-82
2021/04/09 10:44:31;;;;;;;18.08;13.32;;;9.40;68.00;;;;;;5072577;28;20367;-82
2021/04/09 10:47:05;;;;;;;14.13;11.00;;;9.30;68.80;;;;;;5072736;28;20021;-81
2021/04/09 10:49:36;;;;;;;14.13;10.77;;;9.30;68.00;;;;;;5072799;28;20027;-81
2021/04/09 10:52:05;;;;;;;15.60;11.30;;;9.30;67.10;;;;;;5072871;28;20020;-80
2021/04/09 10:54:35;;;;;;;16.55;10.85;;;9.20;66.10;;;;;;5073998;28;20055;-81
2021/04/09 10:57:10;;;;;;;13.77;10.52;;;9.20;67.10;;;;;;5072677;28;20020;-82
2021/04/09 10:59:40;;;;;;;11.93;9.10;;;9.20;67.00;;;;;;5072521;28;20029;-81
2021/04/09 11:02:09;;;;;;;13.38;9.18;;;9.00;64.80;;;;;;5072308;28;20020;-82
2021/04/09 11:04:36;;;;;;;14.45;9.40;;;9.00;63.50;;;;;;5072393;28;20044;-82
2021/04/09 11:07:06;;;;;;;15.70;11.10;;;8.90;64.10;;;;;;5073485;28;20029;-82
2021/04/09 11:09:47;;;;;;;13.10;9.13;;;8.90;62.90;;;;;;5072309;28;20025;-82
2021/04/09 11:12:28;;;;;;;;;;;8.80;63.20;;;;;;5072777;28;20025;-81
2021/04/09 11:15:06;;;;;;;12.15;9.10;;;8.80;65.20;;;;;;5072152;28;19909;-82
2021/04/09 11:17:32;;;;;;;14.02;9.88;;;8.90;64.50;;;;;;5072503;28;20020;-82
2021/04/09 11:19:59;;;;;;;13.38;9.52;;;8.90;66.00;;;;;;5073505;28;20419;-82
2021/04/09 11:22:27;;;;;;;11.27;9.13;;;9.00;64.50;;;;;;5072127;28;20466;-82
2021/04/09 11:25:05;;;;;;;13.73;10.05;;;9.10;64.60;;;;;;5069698;28;20036;-82
2021/04/09 11:27:36;;;;;;;13.40;10.20;;;9.10;64.40;;;;;;5070434;28;20035;-81
2021/04/09 11:30:21;;;;;;;;;;;9.20;66.30;;;;;;5054661;28;20092;-81
2021/04/09 11:32:49;;;;;;;15.18;10.88;;;9.30;65.20;;;;;;5070395;28;20365;-80
2021/04/09 11:35:16;;;;;;;14.07;10.38;;;9.40;65.00;;;;;;5070487;28;20025;-81
2021/04/09 11:37:49;;;;;;;12.32;8.85;;;9.40;65.40;;;;;;5074002;28;20028;-81
2021/04/09 11:40:31;;;;;;;11.25;9.00;;;9.50;66.20;;;;;;5070877;28;20113;-81
2021/04/09 11:42:57;;;;;;;12.57;9.95;;;9.60;65.90;;;;;;5073836;28;20385;-80
2021/04/09 11:45:23;;;;;;;12.30;10.00;;;9.60;63.90;;;;;;5074164;28;20021;-80
2021/04/09 11:47:50;;;;;;;14.23;10.07;;;9.40;63.60;;;;;;5075305;28;20025;-81
2021/04/09 11:50:25;;;;;;;12.48;9.85;;;9.40;65.50;;;;;;5074175;28;20028;-81
2021/04/09 11:53:01;;;;;;;12.50;9.80;;;9.40;65.00;;;;;;5074544;28;20031;-81
2021/04/09 11:55:33;;;;;;;11.65;10.00;;;9.30;65.30;;;;;;5074111;28;20016;-82
2021/04/09 11:57:59;;;;;;;11.45;9.25;;;9.10;65.00;;;;;;5074237;28;20028;-82
2021/04/09 12:00:28;;;;;;;9.73;8.07;;;9.10;66.00;;;;;;5073947;28;20457;-82
2021/04/09 12:02:57;;;;;;;15.25;10.75;;;9.10;66.40;;;;;;5073904;28;20387;-82
2021/04/09 12:05:25;;;;;;;21.27;14.70;;;9.20;65.20;;;;;;5073917;28;20033;-81
2021/04/09 12:07:52;;;;;;;15.18;11.43;;;9.20;65.80;;;;;;5073813;28;20024;-82
2021/04/09 12:10:19;;;;;;;13.85;10.93;;;9.30;66.00;;;;;;5073760;28;20463;-81
2021/04/09 12:12:45;;;;;;;13.02;10.30;;;9.40;64.80;;;;;;5073825;28;20118;-81
2021/04/09 12:15:13;;;;;;;10.85;9.02;;;9.60;64.40;;;;;;5073559;28;20461;-81
2021/04/09 12:17:39;;;;;;;11.57;9.10;;;9.80;65.80;;;;;;5073525;28;20029;-81
2021/04/09 12:20:10;;;;;;;11.18;9.77;;;10.00;63.60;;;;;;5073838;28;20031;-81
2021/04/09 12:22:36;;;;;;;;;;;10.10;62.70;;;;;;5057471;28;20377;-81
2021/04/09 12:25:03;;;;;;;18.70;14.70;;;10.10;61.70;;;;;;5075408;28;19923;-81
2021/04/09 12:27:30;;;;;;;12.32;9.95;;;10.10;61.90;;;;;;5058826;28;20035;-81
2021/04/09 12:29:56;;;;;;;13.10;9.32;;;9.90;62.20;;;;;;5075163;28;20021;-81
2021/04/09 12:32:22;;;;;;;11.73;9.52;;;9.80;63.50;;;;;;5075490;28;20040;-81
2021/04/09 12:34:47;;;;;;;13.40;10.95;;;9.80;63.30;;;;;;5075425;28;20020;-81
2021/04/09 12:37:13;;;;;;;12.63;10.27;;;9.70;62.70;;;;;;5075530;28;20039;-81
2021/04/09 12:39:40;;;;;;;11.13;8.48;;;9.60;62.90;;;;;;5075357;28;20028;-81
2021/04/09 12:42:06;;;;;;;11.35;8.55;;;9.60;63.00;;;;;;5075200;28;20036;-81
2021/04/09 12:44:32;;;;;;;10.50;7.95;;;9.50;62.60;;;;;;5075132;28;20470;-81
2021/04/09 12:46:57;;;;;;;11.23;7.72;;;9.60;62.50;;;;;;5074997;28;20063;-80
2021/04/09 12:49:23;;;;;;;9.48;7.82;;;9.50;62.20;;;;;;5074477;28;20537;-80